createdAt,value
2019-05-13T00:00:57.116Z,19.72
2019-05-13T00:01:57.101Z,19.76
2019-05-13T00:02:57.140Z,19.79
2019-05-13T00:03:57.080Z,19.83
2019-05-13T00:04:57.069Z,19.87
2019-05-13T00:05:57.059Z,19.87
2019-05-13T00:06:57.862Z,19.87
2019-05-13T00:07:57.036Z,19.88
2019-05-13T00:08:57.175Z,19.91
2019-05-13T00:09:57.015Z,20.02
2019-05-13T00:10:57.002Z,19.97
2019-05-13T00:11:56.999Z,19.98
2019-05-13T00:12:56.985Z,20.03
2019-05-13T00:13:56.973Z,19.98
2019-05-13T00:14:57.012Z,19.95
2019-05-13T00:15:56.950Z,20.09
2019-05-13T00:16:56.940Z,20.10
2019-05-13T00:17:56.927Z,20.08
2019-05-13T00:18:56.917Z,20.03
2019-05-13T00:19:56.958Z,20.12
2019-05-13T00:20:56.896Z,20.09
2019-05-13T00:21:56.885Z,20.08
2019-05-13T00:22:56.873Z,20.10
2019-05-13T00:23:56.863Z,20.09
2019-05-13T00:24:56.854Z,20.08
2019-05-13T00:25:56.892Z,20.06
2019-05-13T00:26:56.831Z,20.12
2019-05-13T00:27:56.817Z,20.06
2019-05-13T00:28:56.807Z,20.09
2019-05-13T00:29:56.795Z,19.98
2019-05-13T00:30:56.786Z,19.95
2019-05-13T00:31:56.930Z,20.05
2019-05-13T00:32:56.766Z,20.06
2019-05-13T00:33:56.754Z,20.10
2019-05-13T00:34:56.745Z,20.10
2019-05-13T00:35:56.732Z,20.18
2019-05-13T00:37:07.816Z,20.12
2019-05-13T00:38:21.573Z,20.12
2019-05-13T00:39:21.564Z,20.16
2019-05-13T00:40:23.702Z,20.13
2019-05-13T00:41:21.540Z,20.12
2019-05-13T00:42:21.529Z,20.09
2019-05-13T00:43:21.568Z,20.12
2019-05-13T00:44:21.506Z,20.27
2019-05-13T00:45:21.498Z,20.34
2019-05-13T00:46:23.602Z,20.33
2019-05-13T00:47:23.571Z,20.18
2019-05-13T00:48:23.325Z,20.13
2019-05-13T00:49:23.799Z,20.06
2019-05-13T00:50:21.444Z,20.02
2019-05-13T00:51:21.433Z,19.90
2019-05-13T00:52:23.473Z,19.91
2019-05-13T00:53:23.618Z,19.86
2019-05-13T00:54:23.537Z,19.83
2019-05-13T00:55:23.643Z,19.84
2019-05-13T00:56:23.659Z,19.79
2019-05-13T00:57:23.696Z,19.71
2019-05-13T00:58:21.357Z,19.68
2019-05-13T00:59:21.347Z,19.67
2019-05-13T01:00:21.337Z,19.57
2019-05-13T01:01:21.376Z,19.57
2019-05-13T01:02:21.314Z,19.53
2019-05-13T01:03:21.305Z,19.53
2019-05-13T01:04:23.223Z,19.54
2019-05-13T01:05:23.302Z,19.57
2019-05-13T01:06:23.627Z,19.54
2019-05-13T01:07:28.337Z,19.53
2019-05-13T01:08:46.061Z,19.67
2019-05-13T01:09:46.054Z,19.68
2019-05-13T01:10:46.041Z,19.71
2019-05-13T01:11:46.029Z,19.83
2019-05-13T01:12:46.120Z,19.94
2019-05-13T01:13:46.007Z,19.98
2019-05-13T01:14:45.996Z,19.95
2019-05-13T01:15:45.988Z,20.12
2019-05-13T01:16:45.975Z,20.24
2019-05-13T01:17:45.964Z,20.27
2019-05-13T01:18:46.004Z,20.28
2019-05-13T01:19:45.944Z,20.25
2019-05-13T01:20:45.933Z,20.41
2019-05-13T01:21:45.923Z,20.28
2019-05-13T01:22:45.910Z,20.41
2019-05-13T01:23:45.900Z,20.31
2019-05-13T01:24:46.039Z,20.30
2019-05-13T01:25:45.880Z,20.24
2019-05-13T01:26:45.869Z,20.18
2019-05-13T01:27:45.859Z,20.18
2019-05-13T01:28:45.847Z,20.18
2019-05-13T01:29:45.837Z,20.21
2019-05-13T01:30:45.927Z,20.31
2019-05-13T01:31:45.814Z,20.33
2019-05-13T01:32:45.805Z,20.41
2019-05-13T01:33:45.791Z,20.46
2019-05-13T01:34:45.784Z,20.58
2019-05-13T01:35:45.770Z,20.64
2019-05-13T01:36:45.809Z,20.64
2019-05-13T01:37:46.335Z,20.75
2019-05-13T01:38:45.765Z,20.73
2019-05-13T01:39:45.726Z,20.79
2019-05-13T01:40:45.719Z,20.78
2019-05-13T01:41:45.707Z,20.82
2019-05-13T01:42:45.847Z,20.78
2019-05-13T01:43:45.686Z,20.82
2019-05-13T01:44:45.674Z,20.73
2019-05-13T01:45:45.663Z,20.78
2019-05-13T01:46:45.656Z,20.79
2019-05-13T01:47:45.643Z,20.79
2019-05-13T01:48:45.736Z,20.75
2019-05-13T01:49:45.621Z,20.80
2019-05-13T01:50:45.608Z,20.83
2019-05-13T01:51:45.601Z,20.83
2019-05-13T01:52:45.589Z,20.82
2019-05-13T01:53:45.580Z,20.90
2019-05-13T01:54:45.670Z,20.90
2019-05-13T01:55:45.558Z,20.98
2019-05-13T01:56:45.549Z,20.94
2019-05-13T01:57:45.535Z,21.10
2019-05-13T01:58:45.525Z,21.15
2019-05-13T01:59:45.514Z,21.17
2019-05-13T02:00:45.654Z,21.13
2019-05-13T02:01:45.499Z,21.10
2019-05-13T02:02:45.482Z,21.19
2019-05-13T02:03:45.473Z,21.15
2019-05-13T02:04:45.460Z,21.12
2019-05-13T02:05:45.450Z,21.13
2019-05-13T02:06:45.489Z,21.12
2019-05-13T02:07:56.872Z,21.07
2019-05-13T02:09:10.235Z,21.07
2019-05-13T02:10:10.219Z,21.19
2019-05-13T02:11:10.211Z,21.21
2019-05-13T02:12:10.303Z,21.19
2019-05-13T02:13:10.191Z,21.27
2019-05-13T02:14:10.180Z,21.19
2019-05-13T02:15:10.166Z,21.24
2019-05-13T02:16:10.156Z,21.30
2019-05-13T02:17:10.145Z,21.30
2019-05-13T02:18:10.385Z,21.45
2019-05-13T02:19:10.126Z,21.51
2019-05-13T02:20:10.117Z,21.57
2019-05-13T02:21:10.097Z,21.64
2019-05-13T02:22:10.100Z,21.64
2019-05-13T02:23:10.078Z,21.79
2019-05-13T02:24:10.116Z,21.66
2019-05-13T02:25:10.061Z,21.71
2019-05-13T02:26:10.046Z,21.78
2019-05-13T02:27:10.034Z,21.83
2019-05-13T02:28:10.739Z,21.83
2019-05-13T02:29:10.013Z,21.87
2019-05-13T02:30:10.054Z,21.93
2019-05-13T02:31:13.795Z,21.85
2019-05-13T02:32:34.795Z,21.72
2019-05-13T02:33:34.783Z,21.83
2019-05-13T02:34:34.775Z,21.74
2019-05-13T02:35:34.914Z,21.74
2019-05-13T02:36:34.762Z,21.74
2019-05-13T02:37:34.745Z,21.69
2019-05-13T02:38:35.834Z,21.63
2019-05-13T02:39:34.719Z,21.63
2019-05-13T02:40:34.709Z,21.59
2019-05-13T02:41:34.761Z,21.59
2019-05-13T02:42:34.688Z,21.54
2019-05-13T02:43:34.675Z,21.53
2019-05-13T02:44:34.665Z,21.53
2019-05-13T02:45:34.659Z,21.41
2019-05-13T02:46:34.642Z,21.42
2019-05-13T02:47:34.684Z,21.46
2019-05-13T02:48:34.623Z,21.44
2019-05-13T02:49:34.613Z,21.50
2019-05-13T02:50:34.601Z,21.42
2019-05-13T02:51:34.590Z,21.42
2019-05-13T02:52:34.583Z,21.34
2019-05-13T02:53:34.822Z,21.39
2019-05-13T02:54:34.687Z,21.38
2019-05-13T02:55:34.545Z,21.48
2019-05-13T02:56:34.537Z,21.56
2019-05-13T02:57:34.560Z,21.61
2019-05-13T02:58:34.515Z,21.61
2019-05-13T02:59:34.567Z,21.67
2019-05-13T03:00:34.497Z,21.72
2019-05-13T03:01:34.488Z,21.78
2019-05-13T03:02:34.473Z,21.66
2019-05-13T03:03:34.461Z,21.60
2019-05-13T03:04:34.451Z,21.66
2019-05-13T03:05:34.488Z,21.64
2019-05-13T03:06:34.428Z,21.71
2019-05-13T03:07:34.420Z,21.82
2019-05-13T03:08:44.612Z,21.98
2019-05-13T03:09:59.211Z,22.18
2019-05-13T03:11:02.682Z,22.42
2019-05-13T03:11:59.191Z,22.92
2019-05-13T03:12:59.181Z,23.70
2019-05-13T03:13:59.168Z,24.31
2019-05-13T03:15:02.475Z,25.00
2019-05-13T03:16:02.550Z,24.78
2019-05-13T03:17:02.757Z,25.01
2019-05-13T03:17:59.126Z,25.15
2019-05-13T03:18:59.118Z,25.29
2019-05-13T03:19:59.105Z,25.12
2019-05-13T03:20:59.093Z,25.74
2019-05-13T03:22:02.636Z,26.43
2019-05-13T03:23:02.793Z,26.53
2019-05-13T03:24:03.030Z,26.26
2019-05-13T03:25:02.822Z,26.60
2019-05-13T03:26:02.485Z,27.10
2019-05-13T03:27:02.246Z,27.32
2019-05-13T03:28:02.789Z,27.33
2019-05-13T03:29:02.525Z,26.98
2019-05-13T03:30:03.800Z,26.73
2019-05-13T03:31:05.466Z,26.43
2019-05-13T03:32:26.765Z,25.94
2019-05-13T03:33:48.597Z,25.46
2019-05-13T03:34:48.687Z,25.12
2019-05-13T03:35:48.582Z,25.00
2019-05-13T03:36:48.566Z,24.90
2019-05-13T03:37:48.555Z,25.37
2019-05-13T03:39:01.561Z,25.75
2019-05-13T03:40:13.638Z,26.53
2019-05-13T03:41:13.389Z,26.87
2019-05-13T03:42:13.387Z,26.71
2019-05-13T03:43:13.370Z,26.30
2019-05-13T03:44:13.883Z,26.17
2019-05-13T03:45:13.599Z,25.93
2019-05-13T03:46:13.342Z,25.75
2019-05-13T03:47:13.326Z,25.72
2019-05-13T03:48:13.332Z,25.59
2019-05-13T03:49:14.223Z,25.46
2019-05-13T03:50:13.305Z,25.99
2019-05-13T03:51:13.873Z,26.63
2019-05-13T03:52:13.693Z,27.11
2019-05-13T03:53:13.382Z,27.48
2019-05-13T03:54:13.295Z,27.91
2019-05-13T03:55:13.333Z,28.00
2019-05-13T03:56:13.476Z,27.43
2019-05-13T03:57:13.275Z,27.43
2019-05-13T03:58:13.455Z,27.57
2019-05-13T03:59:13.503Z,27.23
2019-05-13T04:00:13.538Z,26.76
2019-05-13T04:01:13.576Z,27.38
2019-05-13T04:02:13.172Z,27.56
2019-05-13T04:03:13.784Z,27.88
2019-05-13T04:04:13.152Z,27.98
2019-05-13T04:05:13.641Z,28.10
2019-05-13T04:06:14.008Z,28.03
2019-05-13T04:07:13.225Z,28.09
2019-05-13T04:08:13.447Z,27.87
2019-05-13T04:09:25.188Z,27.81
2019-05-13T04:10:14.177Z,28.25
2019-05-13T04:11:13.085Z,28.35
2019-05-13T04:12:13.645Z,28.51
2019-05-13T04:13:13.059Z,28.91
2019-05-13T04:15:13.132Z,28.46
2019-05-13T04:16:13.426Z,28.31
2019-05-13T04:17:13.011Z,28.35
2019-05-13T04:18:13.001Z,28.78
2019-05-13T04:19:12.998Z,29.10
2019-05-13T04:20:12.999Z,28.82
2019-05-13T04:21:13.621Z,28.90
2019-05-13T04:22:13.206Z,28.22
2019-05-13T04:23:13.112Z,27.57
2019-05-13T04:24:12.947Z,27.02
2019-05-13T04:25:12.980Z,26.76
2019-05-13T04:26:14.690Z,26.41
2019-05-13T04:27:13.443Z,26.17
2019-05-13T04:28:13.573Z,25.83
2019-05-13T04:29:13.419Z,25.97
2019-05-13T04:30:13.583Z,25.77
2019-05-13T04:31:14.253Z,25.79
2019-05-13T04:32:13.209Z,25.93
2019-05-13T04:33:13.893Z,26.02
2019-05-13T04:34:12.841Z,25.72
2019-05-13T04:35:12.826Z,25.53
2019-05-13T04:36:13.616Z,25.24
2019-05-13T04:37:13.395Z,24.99
2019-05-13T04:38:13.329Z,25.00
2019-05-13T04:39:13.122Z,25.90
2019-05-13T04:40:12.928Z,26.48
2019-05-13T04:41:12.766Z,27.10
2019-05-13T04:42:12.747Z,27.28
2019-05-13T04:43:13.141Z,27.46
2019-05-13T04:44:13.243Z,27.57
2019-05-13T04:45:13.548Z,27.81
2019-05-13T04:46:15.325Z,27.58
2019-05-13T04:47:12.972Z,27.32
2019-05-13T04:48:13.031Z,27.05
2019-05-13T04:49:12.765Z,26.82
2019-05-13T04:50:12.949Z,26.99
2019-05-13T04:51:13.861Z,26.98
2019-05-13T04:52:13.443Z,26.99
2019-05-13T04:53:13.617Z,26.71
2019-05-13T04:54:13.189Z,26.43
2019-05-13T04:55:13.306Z,26.57
2019-05-13T04:56:13.716Z,26.57
2019-05-13T04:57:12.643Z,26.39
2019-05-13T04:58:13.134Z,26.58
2019-05-13T04:59:12.763Z,26.35
2019-05-13T05:00:13.068Z,26.56
2019-05-13T05:01:14.167Z,26.86
2019-05-13T05:02:13.468Z,27.09
2019-05-13T05:03:13.616Z,27.26
2019-05-13T05:04:22.594Z,27.24
2019-05-13T05:05:42.091Z,26.71
2019-05-13T05:06:42.394Z,26.78
2019-05-13T05:07:42.004Z,27.17
2019-05-13T05:08:42.122Z,27.66
2019-05-13T05:10:02.801Z,27.56
2019-05-13T05:10:42.842Z,26.99
2019-05-13T05:11:42.566Z,26.82
2019-05-13T05:12:42.518Z,26.71
2019-05-13T05:13:42.791Z,26.76
2019-05-13T05:14:41.802Z,26.75
2019-05-13T05:15:41.737Z,26.76
2019-05-13T05:16:44.070Z,26.76
2019-05-13T05:17:42.794Z,26.83
2019-05-13T05:18:42.085Z,26.39
2019-05-13T05:19:44.967Z,26.21
2019-05-13T05:21:05.136Z,25.94
2019-05-13T05:22:05.133Z,26.41
2019-05-13T05:23:05.123Z,26.78
2019-05-13T05:24:05.105Z,26.28
2019-05-13T05:25:05.095Z,25.84
2019-05-13T05:26:05.133Z,25.68
2019-05-13T05:27:05.081Z,25.72
2019-05-13T05:28:05.072Z,25.69
2019-05-13T05:29:05.055Z,25.79
2019-05-13T05:30:05.042Z,26.01
2019-05-13T05:31:05.032Z,25.77
2019-05-13T05:32:05.124Z,25.65
2019-05-13T05:33:05.017Z,25.62
2019-05-13T05:34:06.796Z,25.44
2019-05-13T05:35:04.991Z,25.59
2019-05-13T05:36:04.990Z,25.68
2019-05-13T05:37:04.971Z,25.56
2019-05-13T05:38:05.013Z,25.80
2019-05-13T05:39:04.952Z,25.71
2019-05-13T05:40:04.938Z,25.56
2019-05-13T05:41:04.927Z,25.57
2019-05-13T05:42:04.920Z,25.31
2019-05-13T05:43:04.912Z,24.99
2019-05-13T05:44:04.946Z,24.81
2019-05-13T05:45:04.888Z,24.47
2019-05-13T05:46:04.877Z,24.22
2019-05-13T05:47:04.871Z,24.16
2019-05-13T05:48:04.857Z,24.17
2019-05-13T05:49:04.850Z,24.27
2019-05-13T05:50:04.942Z,24.20
2019-05-13T05:51:04.826Z,24.20
2019-05-13T05:52:04.814Z,24.27
2019-05-13T05:53:04.802Z,24.44
2019-05-13T05:54:04.816Z,24.54
2019-05-13T05:55:04.779Z,24.71
2019-05-13T05:56:04.822Z,24.78
2019-05-13T05:57:04.765Z,24.87
2019-05-13T05:58:04.750Z,25.00
2019-05-13T05:59:04.738Z,24.94
2019-05-13T06:00:04.730Z,24.90
2019-05-13T06:01:04.727Z,24.97
2019-05-13T06:02:04.756Z,24.84
2019-05-13T06:03:04.698Z,24.79
2019-05-13T06:04:04.684Z,24.89
2019-05-13T06:05:04.676Z,24.68
2019-05-13T06:06:04.660Z,24.64
2019-05-13T06:07:04.665Z,24.59
2019-05-13T06:08:04.688Z,24.52
2019-05-13T06:09:04.628Z,24.45
2019-05-13T06:10:04.617Z,24.45
2019-05-13T06:11:04.608Z,24.39
2019-05-13T06:12:04.596Z,24.35
2019-05-13T06:13:04.583Z,24.35
2019-05-13T06:14:04.675Z,24.31
2019-05-13T06:15:04.572Z,24.39
2019-05-13T06:16:04.551Z,24.31
2019-05-13T06:17:04.539Z,24.37
2019-05-13T06:18:04.530Z,24.56
2019-05-13T06:19:04.519Z,24.60
2019-05-13T06:20:04.757Z,24.59
2019-05-13T06:21:04.501Z,24.45
2019-05-13T06:22:04.487Z,24.42
2019-05-13T06:23:04.474Z,24.57
2019-05-13T06:24:04.499Z,24.71
2019-05-13T06:25:04.476Z,24.61
2019-05-13T06:26:04.502Z,24.69
2019-05-13T06:27:04.431Z,24.63
2019-05-13T06:28:04.419Z,24.72
2019-05-13T06:29:04.410Z,24.74
2019-05-13T06:30:04.413Z,24.81
2019-05-13T06:31:04.390Z,24.84
2019-05-13T06:32:18.244Z,24.84
2019-05-13T06:33:31.524Z,24.90
2019-05-13T06:34:29.171Z,25.04
2019-05-13T06:35:29.157Z,25.01
2019-05-13T06:36:31.463Z,24.99
2019-05-13T06:37:29.187Z,25.01
2019-05-13T06:38:31.447Z,25.00
2019-05-13T06:39:31.433Z,24.99
2019-05-13T06:40:29.106Z,24.99
2019-05-13T06:41:29.095Z,24.96
2019-05-13T06:42:29.085Z,25.04
2019-05-13T06:43:31.327Z,25.00
2019-05-13T06:44:31.403Z,25.09
2019-05-13T06:45:31.482Z,25.14
2019-05-13T06:46:29.041Z,25.11
2019-05-13T06:47:29.026Z,25.12
2019-05-13T06:48:29.019Z,25.11
2019-05-13T06:49:29.061Z,25.27
2019-05-13T06:50:28.997Z,25.26
2019-05-13T06:51:31.274Z,25.31
2019-05-13T06:52:29.002Z,25.15
2019-05-13T06:53:28.963Z,25.16
2019-05-13T06:54:28.957Z,25.09
2019-05-13T06:55:31.450Z,25.15
2019-05-13T06:56:28.940Z,25.19
2019-05-13T06:57:28.920Z,25.14
2019-05-13T06:58:28.909Z,25.01
2019-05-13T06:59:31.364Z,24.96
2019-05-13T07:00:28.893Z,24.96
2019-05-13T07:01:28.935Z,24.94
2019-05-13T07:02:28.868Z,25.00
2019-05-13T07:03:28.859Z,25.11
2019-05-13T07:04:28.844Z,25.12
2019-05-13T07:05:28.831Z,25.26
2019-05-13T07:06:28.823Z,25.27
2019-05-13T07:07:28.865Z,25.31
2019-05-13T07:08:31.261Z,25.36
2019-05-13T07:09:28.791Z,25.30
2019-05-13T07:10:28.777Z,25.31
2019-05-13T07:11:31.235Z,25.42
2019-05-13T07:12:31.029Z,25.38
2019-05-13T07:13:28.801Z,25.53
2019-05-13T07:14:28.736Z,25.53
2019-05-13T07:15:31.366Z,25.74
2019-05-13T07:16:28.714Z,25.77
2019-05-13T07:17:28.706Z,25.98
2019-05-13T07:18:28.696Z,26.20
2019-05-13T07:19:28.734Z,26.20
2019-05-13T07:20:28.680Z,26.20
2019-05-13T07:21:28.665Z,26.02
2019-05-13T07:22:31.949Z,26.04
2019-05-13T07:23:28.643Z,26.05
2019-05-13T07:24:28.628Z,25.99
2019-05-13T07:25:28.672Z,25.99
2019-05-13T07:26:28.616Z,26.11
2019-05-13T07:27:28.596Z,26.27
2019-05-13T07:28:28.586Z,26.38
2019-05-13T07:29:28.575Z,26.19
2019-05-13T07:30:28.564Z,26.09
2019-05-13T07:31:28.661Z,26.16
2019-05-13T07:32:28.545Z,26.08
2019-05-13T07:33:28.534Z,25.99
2019-05-13T07:34:28.520Z,26.01
2019-05-13T07:35:30.857Z,26.12
2019-05-13T07:36:53.363Z,26.21
2019-05-13T07:37:53.353Z,26.28
2019-05-13T07:38:53.344Z,26.43
2019-05-13T07:39:53.339Z,26.46
2019-05-13T07:40:53.324Z,26.61
2019-05-13T07:41:53.359Z,26.58
2019-05-13T07:42:53.304Z,26.56
2019-05-13T07:43:53.288Z,26.66
2019-05-13T07:44:53.276Z,26.60
2019-05-13T07:45:53.267Z,26.66
2019-05-13T07:46:53.259Z,26.51
2019-05-13T07:47:53.297Z,26.46
2019-05-13T07:48:53.235Z,26.31
2019-05-13T07:49:53.225Z,26.41
2019-05-13T07:51:00.117Z,26.64
2019-05-13T07:51:54.339Z,26.94
2019-05-13T07:52:53.191Z,26.89
2019-05-13T07:53:53.233Z,26.75
2019-05-13T07:54:53.172Z,26.83
2019-05-13T07:55:53.165Z,26.87
2019-05-13T07:56:53.150Z,26.95
2019-05-13T07:57:53.155Z,26.96
2019-05-13T07:58:53.130Z,27.05
2019-05-13T07:59:53.176Z,27.04
2019-05-13T08:00:53.109Z,27.10
2019-05-13T08:01:53.099Z,27.04
2019-05-13T08:02:53.089Z,26.82
2019-05-13T08:03:53.077Z,26.76
2019-05-13T08:04:53.359Z,26.63
2019-05-13T08:05:53.108Z,26.64
2019-05-13T08:06:53.077Z,26.63
2019-05-13T08:07:53.038Z,26.64
2019-05-13T08:08:53.026Z,26.76
2019-05-13T08:09:56.815Z,26.83
2019-05-13T08:11:17.868Z,26.80
2019-05-13T08:12:18.017Z,26.86
2019-05-13T08:13:17.842Z,26.91
2019-05-13T08:14:17.837Z,26.61
2019-05-13T08:15:17.826Z,26.53
2019-05-13T08:16:17.964Z,26.56
2019-05-13T08:17:17.813Z,26.63
2019-05-13T08:18:17.795Z,26.89
2019-05-13T08:19:17.781Z,26.95
2019-05-13T08:20:17.771Z,26.98
2019-05-13T08:21:17.761Z,27.09
2019-05-13T08:22:17.889Z,27.01
2019-05-13T08:23:17.745Z,27.10
2019-05-13T08:24:17.730Z,27.01
2019-05-13T08:25:17.721Z,27.01
2019-05-13T08:26:17.714Z,27.01
2019-05-13T08:27:24.037Z,26.86
2019-05-13T08:28:18.840Z,26.82
2019-05-13T08:29:17.680Z,26.89
2019-05-13T08:30:18.353Z,26.89
2019-05-13T08:31:17.664Z,26.87
2019-05-13T08:32:17.649Z,26.96
2019-05-13T08:33:17.637Z,26.95
2019-05-13T08:34:17.678Z,26.95
2019-05-13T08:35:17.618Z,27.02
2019-05-13T08:36:17.626Z,27.01
2019-05-13T08:37:17.596Z,27.01
2019-05-13T08:38:17.589Z,27.14
2019-05-13T08:39:17.575Z,27.24
2019-05-13T08:40:20.123Z,27.31
2019-05-13T08:41:19.355Z,27.28
2019-05-13T08:42:20.182Z,27.28
2019-05-13T08:43:17.540Z,27.11
2019-05-13T08:44:17.526Z,27.24
2019-05-13T08:45:17.515Z,27.13
2019-05-13T08:46:17.604Z,27.04
2019-05-13T08:47:17.492Z,27.06
2019-05-13T08:48:17.481Z,27.09
2019-05-13T08:49:17.471Z,27.01
2019-05-13T08:50:17.462Z,26.92
2019-05-13T08:51:17.453Z,26.91
2019-05-13T08:52:17.492Z,26.82
2019-05-13T08:53:17.429Z,26.80
2019-05-13T08:54:17.434Z,26.98
2019-05-13T08:55:17.413Z,27.09
2019-05-13T08:56:17.397Z,27.13
2019-05-13T08:57:17.390Z,27.11
2019-05-13T08:58:17.428Z,27.02
2019-05-13T08:59:17.369Z,27.02
2019-05-13T09:00:17.368Z,27.09
2019-05-13T09:01:17.350Z,27.36
2019-05-13T09:02:17.340Z,27.56
2019-05-13T09:03:17.326Z,27.51
2019-05-13T09:04:17.364Z,27.58
2019-05-13T09:05:17.307Z,27.57
2019-05-13T09:06:17.291Z,27.36
2019-05-13T09:07:20.917Z,27.10
2019-05-13T09:08:42.585Z,27.01
2019-05-13T09:09:42.243Z,26.92
2019-05-13T09:10:42.067Z,26.66
2019-05-13T09:11:42.362Z,26.51
2019-05-13T09:12:43.323Z,26.42
2019-05-13T09:13:42.457Z,26.38
2019-05-13T09:14:42.029Z,26.60
2019-05-13T09:15:42.317Z,26.98
2019-05-13T09:16:42.097Z,27.16
2019-05-13T09:17:42.560Z,27.05
2019-05-13T09:18:42.722Z,26.99
2019-05-13T09:19:41.975Z,27.04
2019-05-13T09:20:41.968Z,27.06
2019-05-13T09:21:42.505Z,27.14
2019-05-13T09:22:41.946Z,27.10
2019-05-13T09:23:41.930Z,27.10
2019-05-13T09:24:42.625Z,27.09
2019-05-13T09:25:41.917Z,27.02
2019-05-13T09:26:42.404Z,26.48
2019-05-13T09:27:42.593Z,26.39
2019-05-13T09:28:41.905Z,26.34
2019-05-13T09:29:42.859Z,26.28
2019-05-13T09:30:42.534Z,26.53
2019-05-13T09:31:41.853Z,26.61
2019-05-13T09:33:43.833Z,26.54
2019-05-13T09:34:42.369Z,26.71
2019-05-13T09:35:42.338Z,26.83
2019-05-13T09:36:42.018Z,26.89
2019-05-13T09:37:42.425Z,26.95
2019-05-13T09:38:42.012Z,26.86
2019-05-13T09:39:41.775Z,26.87
2019-05-13T09:40:42.374Z,26.78
2019-05-13T09:41:44.413Z,26.83
2019-05-13T09:42:50.952Z,26.86
2019-05-13T09:44:06.596Z,26.78
2019-05-13T09:45:06.582Z,26.73
2019-05-13T09:46:06.585Z,26.61
2019-05-13T09:47:06.564Z,26.64
2019-05-13T09:48:06.553Z,26.76
2019-05-13T09:49:15.710Z,26.80
2019-05-13T09:50:35.369Z,26.80
2019-05-13T09:51:32.367Z,26.82
2019-05-13T09:52:32.025Z,26.80
2019-05-13T09:53:32.531Z,26.82
2019-05-13T09:54:32.954Z,26.82
2019-05-13T09:55:32.551Z,26.67
2019-05-13T09:56:32.050Z,26.66
2019-05-13T09:57:32.180Z,26.75
2019-05-13T09:58:33.132Z,26.63
2019-05-13T09:59:31.997Z,26.67
2019-05-13T10:00:32.322Z,26.58
2019-05-13T10:01:32.079Z,26.63
2019-05-13T10:02:32.049Z,26.43
2019-05-13T10:03:33.070Z,26.24
2019-05-13T10:04:31.975Z,26.06
2019-05-13T10:05:31.735Z,26.19
2019-05-13T10:06:32.675Z,26.36
2019-05-13T10:07:31.947Z,26.46
2019-05-13T10:08:32.679Z,26.53
2019-05-13T10:09:32.620Z,26.58
2019-05-13T10:10:31.850Z,26.63
2019-05-13T10:11:31.127Z,26.67
2019-05-13T10:12:31.962Z,26.80
2019-05-13T10:13:31.829Z,26.89
2019-05-13T10:14:32.636Z,26.78
2019-05-13T10:15:32.565Z,26.94
2019-05-13T10:16:31.444Z,26.92
2019-05-13T10:17:31.763Z,26.99
2019-05-13T10:18:32.607Z,27.01
2019-05-13T10:19:32.227Z,27.10
2019-05-13T10:20:32.225Z,27.01
2019-05-13T10:21:32.754Z,27.01
2019-05-13T10:22:31.922Z,27.09
2019-05-13T10:23:32.877Z,27.06
2019-05-13T10:24:32.731Z,27.02
2019-05-13T10:25:30.985Z,27.16
2019-05-13T10:26:32.018Z,27.17
2019-05-13T10:27:32.408Z,27.13
2019-05-13T10:28:31.920Z,27.02
2019-05-13T10:29:31.761Z,26.98
2019-05-13T10:30:32.168Z,26.95
2019-05-13T10:31:31.505Z,26.94
2019-05-13T10:32:32.442Z,26.95
2019-05-13T10:33:31.806Z,26.95
2019-05-13T10:34:32.166Z,26.98
2019-05-13T10:35:31.731Z,26.94
2019-05-13T10:36:30.917Z,26.98
2019-05-13T10:37:30.856Z,26.99
2019-05-13T10:38:32.465Z,27.02
2019-05-13T10:39:30.833Z,27.10
2019-05-13T10:40:32.669Z,27.04
2019-05-13T10:41:33.272Z,26.95
2019-05-13T10:42:30.850Z,26.76
2019-05-13T10:43:31.845Z,26.38
2019-05-13T10:44:30.780Z,26.19
2019-05-13T10:45:33.247Z,26.12
2019-05-13T10:46:32.111Z,26.08
2019-05-13T10:47:30.753Z,25.97
2019-05-13T10:48:30.788Z,25.97
2019-05-13T10:49:33.191Z,26.11
2019-05-13T10:50:31.712Z,26.09
2019-05-13T10:51:32.621Z,26.01
2019-05-13T10:52:32.191Z,25.98
2019-05-13T10:53:32.130Z,25.86
2019-05-13T10:54:32.466Z,25.82
2019-05-13T10:55:32.234Z,25.82
2019-05-13T10:56:32.748Z,25.82
2019-05-13T10:57:31.899Z,25.75
2019-05-13T10:58:30.636Z,25.74
2019-05-13T10:59:30.620Z,25.80
2019-05-13T11:00:32.034Z,25.80
2019-05-13T11:01:32.783Z,25.90
2019-05-13T11:02:32.610Z,25.86
2019-05-13T11:03:32.927Z,25.90
2019-05-13T11:04:32.719Z,25.80
2019-05-13T11:05:32.638Z,25.80
2019-05-13T11:06:32.545Z,25.79
2019-05-13T11:07:32.085Z,25.74
2019-05-13T11:08:33.089Z,25.69
2019-05-13T11:09:32.534Z,25.71
2019-05-13T11:10:32.591Z,25.69
2019-05-13T11:11:33.029Z,25.71
2019-05-13T11:12:30.531Z,25.77
2019-05-13T11:13:47.869Z,25.74
2019-05-13T11:14:32.337Z,25.68
2019-05-13T11:15:32.856Z,25.56
2019-05-13T11:16:55.248Z,25.34
2019-05-13T11:17:55.388Z,25.44
2019-05-13T11:18:55.226Z,25.37
2019-05-13T11:19:55.217Z,25.38
2019-05-13T11:20:55.204Z,25.54
2019-05-13T11:21:55.195Z,25.59
2019-05-13T11:22:55.183Z,25.52
2019-05-13T11:23:55.238Z,25.33
2019-05-13T11:24:55.182Z,25.46
2019-05-13T11:25:55.149Z,25.36
2019-05-13T11:26:55.138Z,25.47
2019-05-13T11:28:57.167Z,25.30
2019-05-13T11:29:55.106Z,25.33
2019-05-13T11:30:59.534Z,25.42
2019-05-13T11:31:55.087Z,25.46
2019-05-13T11:32:55.094Z,25.46
2019-05-13T11:33:55.064Z,25.53
2019-05-13T11:34:55.103Z,25.37
2019-05-13T11:35:55.040Z,25.27
2019-05-13T11:36:55.030Z,25.38
2019-05-13T11:37:55.019Z,25.41
2019-05-13T11:38:55.007Z,25.38
2019-05-13T11:39:54.993Z,25.46
2019-05-13T11:40:55.035Z,25.37
2019-05-13T11:41:54.973Z,25.31
2019-05-13T11:42:54.970Z,25.27
2019-05-13T11:44:12.043Z,25.24
2019-05-13T11:45:22.364Z,25.21
2019-05-13T11:46:22.598Z,25.26
2019-05-13T11:47:19.730Z,25.24
2019-05-13T11:48:19.722Z,25.24
2019-05-13T11:49:19.714Z,25.29
2019-05-13T11:50:21.578Z,25.27
2019-05-13T11:51:19.691Z,25.24
2019-05-13T11:52:22.163Z,25.11
2019-05-13T11:53:33.192Z,25.29
2019-05-13T11:54:22.326Z,25.26
2019-05-13T11:55:22.932Z,25.30
2019-05-13T11:56:22.728Z,25.30
2019-05-13T11:57:19.626Z,25.27
2019-05-13T11:58:19.712Z,25.38
2019-05-13T11:59:22.066Z,25.26
2019-05-13T12:00:19.588Z,25.27
2019-05-13T12:01:22.626Z,25.27
2019-05-13T12:02:23.246Z,25.26
2019-05-13T12:03:22.691Z,25.27
2019-05-13T12:04:23.293Z,25.21
2019-05-13T12:05:22.237Z,25.21
2019-05-13T12:06:22.847Z,25.24
2019-05-13T12:07:22.957Z,25.23
2019-05-13T12:08:22.472Z,25.29
2019-05-13T12:09:22.024Z,25.27
2019-05-13T12:10:22.623Z,25.37
2019-05-13T12:11:21.711Z,25.33
2019-05-13T12:12:19.461Z,25.31
2019-05-13T12:13:19.450Z,25.33
2019-05-13T12:14:39.107Z,25.44
2019-05-13T12:15:49.457Z,25.49
2019-05-13T12:16:44.230Z,25.52
2019-05-13T12:17:44.219Z,25.54
2019-05-13T12:18:44.208Z,25.59
2019-05-13T12:19:44.197Z,25.65
2019-05-13T12:20:44.184Z,25.59
2019-05-13T12:21:46.627Z,25.56
2019-05-13T12:22:44.163Z,25.49
2019-05-13T12:23:44.154Z,25.33
2019-05-13T12:24:44.145Z,25.33
2019-05-13T12:25:44.159Z,25.29
2019-05-13T12:26:44.121Z,25.23
2019-05-13T12:27:44.158Z,25.23
2019-05-13T12:28:44.100Z,25.26
2019-05-13T12:29:44.093Z,25.29
2019-05-13T12:30:44.077Z,25.19
2019-05-13T12:31:44.068Z,25.15
2019-05-13T12:32:44.059Z,25.12
2019-05-13T12:33:44.257Z,25.09
2019-05-13T12:34:45.881Z,25.12
2019-05-13T12:35:44.056Z,25.11
2019-05-13T12:36:44.015Z,25.14
2019-05-13T12:37:44.003Z,25.05
2019-05-13T12:38:44.448Z,25.09
2019-05-13T12:39:44.254Z,25.11
2019-05-13T12:40:43.972Z,24.97
2019-05-13T12:41:43.963Z,24.97
2019-05-13T12:42:47.127Z,24.97
2019-05-13T12:43:43.938Z,24.91
2019-05-13T12:45:00.253Z,24.93
2019-05-13T12:46:08.829Z,24.90
2019-05-13T12:47:11.386Z,24.91
2019-05-13T12:48:08.767Z,24.93
2019-05-13T12:49:08.760Z,24.90
2019-05-13T12:50:08.746Z,24.93
2019-05-13T12:51:08.784Z,24.86
2019-05-13T12:52:08.725Z,24.84
2019-05-13T12:53:11.901Z,24.78
2019-05-13T12:54:08.695Z,24.87
2019-05-13T12:55:08.682Z,24.87
2019-05-13T12:56:08.675Z,24.87
2019-05-13T12:57:13.154Z,24.90
2019-05-13T12:59:34.559Z,24.87
2019-05-13T13:00:33.441Z,24.89
2019-05-13T13:01:33.430Z,24.82
2019-05-13T13:02:33.469Z,24.87
2019-05-13T13:03:33.473Z,24.81
2019-05-13T13:04:33.846Z,24.75
2019-05-13T13:05:36.996Z,24.75